createdAt,value
2018-01-26T00:00:06.168Z,77.27
2018-01-26T00:02:34.511Z,77.35
2018-01-26T00:05:02.841Z,76.60
2018-01-26T00:07:31.172Z,76.05
2018-01-26T00:09:59.520Z,76.08
2018-01-26T00:12:27.824Z,75.83
2018-01-26T00:14:56.136Z,76.22
2018-01-26T00:17:24.703Z,76.40
2018-01-26T00:19:53.037Z,76.14
2018-01-26T00:22:21.338Z,76.14
2018-01-26T00:24:49.708Z,76.00
2018-01-26T00:27:18.044Z,75.76
2018-01-26T00:29:46.341Z,75.62
2018-01-26T00:32:14.699Z,76.05
2018-01-26T00:34:43.015Z,76.21
2018-01-26T00:37:11.351Z,76.45
2018-01-26T00:39:39.800Z,77.34
2018-01-26T00:42:08.146Z,77.99
2018-01-26T00:44:37.273Z,78.16
2018-01-26T00:47:05.620Z,78.09
2018-01-26T00:49:33.912Z,78.15
2018-01-26T00:52:02.238Z,78.82
2018-01-26T00:54:30.612Z,78.07
2018-01-26T00:56:59.691Z,78.04
2018-01-26T00:59:28.064Z,78.03
2018-01-26T01:01:56.602Z,78.04
2018-01-26T01:04:24.928Z,77.84
2018-01-26T01:06:54.016Z,77.80
2018-01-26T01:09:22.358Z,77.59
2018-01-26T01:11:50.671Z,77.21
2018-01-26T01:14:18.972Z,76.97
2018-01-26T01:16:48.131Z,77.18
2018-01-26T01:19:16.454Z,77.17
2018-01-26T01:21:45.564Z,77.44
2018-01-26T01:24:14.184Z,77.90
2018-01-26T01:26:42.513Z,77.93
2018-01-26T01:29:11.615Z,78.58
2018-01-26T01:31:40.745Z,78.09
2018-01-26T01:34:09.063Z,78.93
2018-01-26T01:36:37.405Z,78.72
2018-01-26T01:39:05.774Z,79.01
2018-01-26T01:41:34.067Z,79.10
2018-01-26T01:44:02.393Z,78.73
2018-01-26T01:46:31.285Z,78.47
2018-01-26T01:49:17.688Z,78.59
2018-01-26T01:51:46.816Z,78.55
2018-01-26T01:54:15.175Z,78.79
2018-01-26T01:56:43.519Z,79.00
2018-01-26T01:59:11.866Z,78.91
2018-01-26T02:01:40.160Z,79.38
2018-01-26T02:04:08.478Z,79.20
2018-01-26T02:06:37.827Z,78.76
2018-01-26T02:09:06.184Z,78.93
2018-01-26T02:11:34.524Z,79.53
2018-01-26T02:14:02.901Z,79.98
2018-01-26T02:16:31.218Z,79.95
2018-01-26T02:18:59.517Z,79.25
2018-01-26T02:21:27.908Z,79.30
2018-01-26T02:23:56.268Z,79.65
2018-01-26T02:26:24.593Z,80.55
2018-01-26T02:28:53.512Z,80.27
2018-01-26T02:31:22.611Z,79.27
2018-01-26T02:33:50.924Z,79.64
2018-01-26T02:36:19.350Z,79.23
2018-01-26T02:38:47.842Z,79.77
2018-01-26T02:41:16.158Z,79.68
2018-01-26T02:43:44.540Z,80.52
2018-01-26T02:46:12.877Z,80.56
2018-01-26T02:48:41.199Z,80.26
2018-01-26T02:51:10.531Z,79.25
2018-01-26T02:53:38.833Z,79.33
2018-01-26T02:56:07.154Z,79.39
2018-01-26T02:58:35.486Z,79.31
2018-01-26T03:01:03.796Z,79.70
2018-01-26T03:03:32.108Z,79.46
2018-01-26T03:06:00.466Z,79.78
2018-01-26T03:08:28.832Z,80.46
2018-01-26T03:10:57.168Z,79.99
2018-01-26T03:13:25.893Z,80.61
2018-01-26T03:15:54.250Z,80.10
2018-01-26T03:18:22.564Z,80.01
2018-01-26T03:20:50.900Z,79.87
2018-01-26T03:23:19.992Z,80.02
2018-01-26T03:25:49.099Z,79.65
2018-01-26T03:28:18.199Z,80.13
2018-01-26T03:30:46.480Z,80.58
2018-01-26T03:33:14.799Z,80.39
2018-01-26T03:35:43.313Z,79.75
2018-01-26T03:38:11.632Z,79.31
2018-01-26T03:40:39.992Z,79.92
2018-01-26T03:43:09.088Z,79.80
2018-01-26T03:45:38.175Z,79.69
2018-01-26T03:48:07.271Z,79.35
2018-01-26T03:50:36.377Z,79.42
2018-01-26T03:53:05.462Z,80.02
2018-01-26T03:55:34.568Z,79.32
2018-01-26T03:58:04.173Z,78.61
2018-01-26T04:00:33.286Z,78.49
2018-01-26T04:03:01.625Z,78.70
2018-01-26T04:05:29.937Z,78.61
2018-01-26T04:07:58.245Z,78.73
2018-01-26T04:10:26.569Z,79.01
2018-01-26T04:12:54.957Z,79.38
2018-01-26T04:15:24.090Z,78.87
2018-01-26T04:17:52.418Z,78.14
2018-01-26T04:20:20.987Z,78.14
2018-01-26T04:22:49.292Z,78.69
2018-01-26T04:25:18.375Z,78.77
2018-01-26T04:27:46.696Z,79.04
2018-01-26T04:30:15.026Z,79.08
2018-01-26T04:32:43.363Z,78.78
2018-01-26T04:35:11.740Z,78.35
2018-01-26T04:37:40.072Z,78.95
2018-01-26T04:40:08.357Z,78.78
2018-01-26T04:42:37.251Z,79.15
2018-01-26T04:45:05.540Z,78.80
2018-01-26T04:47:33.871Z,79.01
2018-01-26T04:50:02.976Z,78.66
2018-01-26T04:52:31.312Z,78.64
2018-01-26T04:54:59.621Z,78.93
2018-01-26T04:57:28.222Z,79.52
2018-01-26T04:59:56.590Z,79.75
2018-01-26T05:02:24.963Z,79.20
2018-01-26T05:04:53.780Z,79.49
2018-01-26T05:07:22.174Z,79.18
2018-01-26T05:09:50.515Z,78.86
2018-01-26T05:12:18.861Z,78.55
2018-01-26T05:14:47.182Z,78.16
2018-01-26T05:17:15.526Z,78.19
2018-01-26T05:19:43.943Z,78.37
2018-01-26T05:22:12.380Z,79.01
2018-01-26T05:24:40.742Z,79.19
2018-01-26T05:27:09.487Z,78.96
2018-01-26T05:29:37.870Z,79.32
2018-01-26T05:32:06.238Z,79.59
2018-01-26T05:34:34.730Z,78.97
2018-01-26T05:37:03.199Z,78.75
2018-01-26T05:39:31.581Z,78.26
2018-01-26T05:41:59.939Z,79.12
2018-01-26T05:44:28.260Z,78.42
2018-01-26T05:46:56.604Z,78.31
2018-01-26T05:49:26.273Z,78.42
2018-01-26T05:51:54.605Z,78.62
2018-01-26T05:54:22.923Z,78.36
2018-01-26T05:56:52.024Z,77.99
2018-01-26T05:59:21.123Z,77.61
2018-01-26T06:01:49.601Z,78.61
2018-01-26T06:04:17.934Z,77.86
2018-01-26T06:06:46.260Z,77.75
2018-01-26T06:09:14.579Z,77.31
2018-01-26T06:11:43.445Z,77.27
2018-01-26T06:14:11.841Z,77.16
2018-01-26T06:16:40.156Z,77.01
2018-01-26T06:19:08.499Z,77.83
2018-01-26T06:21:36.840Z,78.82
2018-01-26T06:24:05.922Z,79.10
2018-01-26T06:26:35.027Z,78.30
2018-01-26T06:29:04.104Z,78.77
2018-01-26T06:31:32.401Z,78.88
2018-01-26T06:34:01.989Z,79.52
2018-01-26T06:36:30.337Z,79.39
2018-01-26T06:38:58.674Z,78.86
2018-01-26T06:41:27.000Z,78.36
2018-01-26T06:43:55.300Z,78.61
2018-01-26T06:46:23.660Z,78.22
2018-01-26T06:48:52.014Z,78.14
2018-01-26T06:51:20.367Z,78.12
2018-01-26T06:53:49.492Z,78.43
2018-01-26T06:56:18.304Z,78.47
2018-01-26T06:58:46.607Z,78.37
2018-01-26T07:01:14.942Z,77.79
2018-01-26T07:03:44.236Z,78.40
2018-01-26T07:06:12.557Z,78.48
2018-01-26T07:08:40.887Z,78.12
2018-01-26T07:11:09.223Z,77.79
2018-01-26T07:13:37.557Z,77.95
2018-01-26T07:16:05.879Z,78.45
2018-01-26T07:18:34.432Z,78.23
2018-01-26T07:21:02.791Z,78.04
2018-01-26T07:23:31.151Z,79.37
2018-01-26T07:25:59.522Z,79.20
2018-01-26T07:28:27.842Z,78.60
2018-01-26T07:30:56.937Z,78.43
2018-01-26T07:33:25.271Z,78.38
2018-01-26T07:35:53.681Z,78.59
2018-01-26T07:38:22.000Z,78.63
2018-01-26T07:40:50.393Z,78.05
2018-01-26T07:43:19.480Z,77.92
2018-01-26T07:45:48.600Z,78.40
2018-01-26T07:48:16.967Z,78.59
2018-01-26T07:50:46.068Z,79.15
2018-01-26T07:53:15.162Z,78.92
2018-01-26T07:55:44.347Z,78.71
2018-01-26T07:58:13.431Z,78.67
2018-01-26T08:00:41.800Z,78.56
2018-01-26T08:03:10.892Z,77.99
2018-01-26T08:05:40.030Z,77.66
2018-01-26T08:08:09.126Z,77.45
2018-01-26T08:10:38.255Z,77.32
2018-01-26T08:13:07.034Z,77.23
2018-01-26T08:15:35.345Z,77.87
2018-01-26T08:18:03.707Z,77.81
2018-01-26T08:20:32.075Z,77.68
2018-01-26T08:23:00.391Z,77.48
2018-01-26T08:25:29.122Z,77.66
2018-01-26T08:27:58.207Z,77.35
2018-01-26T08:30:27.317Z,77.61
2018-01-26T08:32:55.644Z,77.07
2018-01-26T08:35:23.959Z,76.85
2018-01-26T08:37:52.269Z,77.37
2018-01-26T08:40:20.606Z,76.96
2018-01-26T08:42:48.927Z,76.03
2018-01-26T08:45:17.275Z,75.99
2018-01-26T08:47:45.903Z,76.01
2018-01-26T08:50:14.228Z,74.80
2018-01-26T08:52:43.341Z,75.10
2018-01-26T08:58:17.560Z,75.33
2018-01-26T09:00:45.908Z,74.87
2018-01-26T09:03:14.260Z,74.43
2018-01-26T09:05:42.591Z,73.67
2018-01-26T09:08:11.499Z,73.54
2018-01-26T09:10:40.575Z,73.35
2018-01-26T09:13:09.133Z,73.02
2018-01-26T09:15:38.368Z,72.65
2018-01-26T09:18:07.456Z,74.53
2018-01-26T09:20:35.807Z,73.68
2018-01-26T09:23:05.242Z,74.39
2018-01-26T09:25:33.581Z,75.32
2018-01-26T09:28:02.699Z,74.63
2018-01-26T09:30:31.954Z,74.88
2018-01-26T09:33:00.264Z,73.80
2018-01-26T09:35:29.359Z,73.99
2018-01-26T09:37:57.735Z,74.20
2018-01-26T09:40:26.080Z,75.46
2018-01-26T09:42:54.460Z,74.60
2018-01-26T09:45:22.859Z,73.98
2018-01-26T09:47:51.173Z,74.16
2018-01-26T09:50:19.529Z,73.71
2018-01-26T09:52:48.096Z,73.19
2018-01-26T09:55:16.518Z,73.35
2018-01-26T09:57:44.865Z,73.29
2018-01-26T10:00:13.275Z,73.19
2018-01-26T10:02:41.612Z,73.48
2018-01-26T10:05:09.948Z,73.64
2018-01-26T10:07:39.084Z,73.89
2018-01-26T10:10:08.484Z,72.99
2018-01-26T10:12:36.814Z,72.53
2018-01-26T10:15:05.602Z,71.94
2018-01-26T10:17:33.944Z,71.45
2018-01-26T10:20:02.259Z,71.92
2018-01-26T10:22:30.636Z,71.44
2018-01-26T10:24:58.971Z,71.26
2018-01-26T10:27:27.337Z,71.82
2018-01-26T10:29:55.704Z,70.92
2018-01-26T10:32:24.013Z,71.13
2018-01-26T10:34:52.344Z,70.58
2018-01-26T10:37:21.670Z,70.94
2018-01-26T10:39:50.053Z,71.28
2018-01-26T10:42:18.391Z,70.21
2018-01-26T10:44:46.725Z,70.04
2018-01-26T10:47:15.075Z,69.27
2018-01-26T10:49:43.385Z,69.80
2018-01-26T10:52:11.738Z,70.34
2018-01-26T10:54:40.094Z,70.62
2018-01-26T10:57:08.443Z,70.60
2018-01-26T10:59:37.146Z,70.42
2018-01-26T11:02:05.513Z,70.21
2018-01-26T11:04:33.895Z,71.43
2018-01-26T11:07:02.263Z,71.34
2018-01-26T11:09:30.669Z,70.88
2018-01-26T11:11:59.033Z,71.66
2018-01-26T11:14:27.417Z,71.33
2018-01-26T11:16:56.151Z,71.32
2018-01-26T11:19:24.497Z,70.96
2018-01-26T11:21:53.225Z,71.26
2018-01-26T11:24:21.555Z,70.85
2018-01-26T11:26:49.912Z,70.18
2018-01-26T11:29:18.394Z,69.77
2018-01-26T11:31:46.720Z,67.87
2018-01-26T11:34:15.818Z,67.70
2018-01-26T11:36:44.930Z,68.08
2018-01-26T11:39:13.268Z,67.83
2018-01-26T11:41:41.603Z,68.10
2018-01-26T11:44:10.376Z,68.62
2018-01-26T11:46:38.763Z,68.68
2018-01-26T11:49:07.090Z,69.07
2018-01-26T11:51:35.465Z,68.11
2018-01-26T11:54:03.804Z,68.14
2018-01-26T11:56:32.125Z,67.95
2018-01-26T11:59:00.480Z,68.42
2018-01-26T12:01:29.584Z,68.29
2018-01-26T12:03:58.707Z,68.98
2018-01-26T12:06:27.976Z,69.56
2018-01-26T12:08:56.324Z,70.04
2018-01-26T12:11:24.629Z,69.63
2018-01-26T12:13:53.022Z,69.42
2018-01-26T12:16:21.353Z,69.10
2018-01-26T12:18:49.671Z,69.20
2018-01-26T12:21:18.111Z,68.48
2018-01-26T12:23:46.458Z,68.45
2018-01-26T12:26:14.776Z,68.70
2018-01-26T12:28:43.353Z,68.78
2018-01-26T12:31:11.707Z,69.12
2018-01-26T12:33:40.012Z,69.67
2018-01-26T12:36:08.397Z,68.59
2018-01-26T12:38:36.719Z,69.05
2018-01-26T12:41:05.046Z,70.77
2018-01-26T12:43:33.445Z,70.32
2018-01-26T12:46:01.815Z,69.30
2018-01-26T12:48:30.159Z,69.17
2018-01-26T12:50:59.757Z,69.62
2018-01-26T12:53:28.116Z,69.52
2018-01-26T12:55:56.456Z,69.41
2018-01-26T12:58:24.839Z,69.83
2018-01-26T13:00:53.169Z,69.74
2018-01-26T13:03:21.503Z,69.54
2018-01-26T13:05:49.852Z,69.26
2018-01-26T13:08:18.203Z,69.54
2018-01-26T13:10:46.522Z,69.07
2018-01-26T13:13:15.272Z,68.81
2018-01-26T13:15:43.628Z,68.77
2018-01-26T13:18:11.951Z,68.47
2018-01-26T13:20:40.327Z,67.94
2018-01-26T13:23:08.663Z,68.13
2018-01-26T13:25:37.010Z,67.28
2018-01-26T13:28:05.400Z,68.84
2018-01-26T13:30:33.772Z,69.30
2018-01-26T13:33:02.093Z,69.01
2018-01-26T13:35:30.523Z,69.61
2018-01-26T13:37:58.833Z,70.39
2018-01-26T13:40:27.169Z,70.94
2018-01-26T13:42:55.537Z,70.96
2018-01-26T13:45:23.859Z,72.01
2018-01-26T13:47:52.197Z,72.02
2018-01-26T13:50:20.543Z,71.13
2018-01-26T13:52:48.879Z,71.04
2018-01-26T13:55:17.224Z,71.12
2018-01-26T13:57:46.008Z,71.20
2018-01-26T14:00:15.104Z,71.06
2018-01-26T14:02:43.482Z,71.17
2018-01-26T14:05:12.634Z,71.36
2018-01-26T14:07:40.935Z,71.40
2018-01-26T14:10:09.305Z,71.43
2018-01-26T14:12:37.628Z,71.04
2018-01-26T14:15:05.950Z,70.65
2018-01-26T14:17:34.266Z,70.20
2018-01-26T14:20:02.932Z,71.31
2018-01-26T14:22:31.257Z,70.08
2018-01-26T14:25:00.339Z,70.12
2018-01-26T14:27:29.471Z,70.15
2018-01-26T14:29:57.797Z,69.85
2018-01-26T14:32:26.935Z,70.02
2018-01-26T14:34:55.286Z,69.18
2018-01-26T14:37:24.435Z,69.38
2018-01-26T14:39:52.735Z,69.42
2018-01-26T14:42:21.403Z,69.53
2018-01-26T14:44:49.731Z,69.23
2018-01-26T14:47:18.083Z,68.86
2018-01-26T14:49:46.443Z,68.78
2018-01-26T14:52:14.885Z,69.31
2018-01-26T14:54:43.330Z,69.21
2018-01-26T14:57:11.689Z,69.19
2018-01-26T14:59:40.015Z,69.54
2018-01-26T15:02:08.394Z,70.17
2018-01-26T15:04:37.164Z,69.72
2018-01-26T15:07:06.258Z,69.63
2018-01-26T15:09:34.672Z,70.05
2018-01-26T15:12:03.021Z,70.60
2018-01-26T15:14:31.374Z,70.20
2018-01-26T15:16:59.752Z,70.02
2018-01-26T15:19:28.128Z,70.11
2018-01-26T15:21:56.467Z,70.34
2018-01-26T15:24:24.770Z,70.42
2018-01-26T15:26:53.337Z,70.64
2018-01-26T15:29:21.689Z,69.89
2018-01-26T15:31:50.794Z,69.94
2018-01-26T15:34:19.138Z,70.27
2018-01-26T15:36:47.497Z,69.77
2018-01-26T15:39:15.844Z,70.59
2018-01-26T15:41:44.457Z,70.17
2018-01-26T15:44:12.898Z,70.20
2018-01-26T15:46:41.218Z,69.76
2018-01-26T15:49:09.651Z,70.46
2018-01-26T15:51:37.983Z,70.07
2018-01-26T15:54:06.324Z,70.46
2018-01-26T15:56:34.694Z,70.55
2018-01-26T15:59:03.036Z,70.33
2018-01-26T16:01:31.359Z,69.95
2018-01-26T16:03:59.718Z,70.15
2018-01-26T16:06:28.035Z,71.17
2018-01-26T16:08:56.331Z,71.60
2018-01-26T16:11:25.189Z,71.36
2018-01-26T16:13:53.564Z,72.97
2018-01-26T16:16:21.869Z,72.65
2018-01-26T16:18:50.624Z,71.87
2018-01-26T16:21:18.954Z,71.49
2018-01-26T16:23:47.277Z,72.48
2018-01-26T16:26:15.674Z,71.84
2018-01-26T16:28:44.017Z,72.13
2018-01-26T16:31:12.365Z,71.75
2018-01-26T16:33:41.091Z,71.51
2018-01-26T16:36:09.405Z,70.66
2018-01-26T16:38:37.698Z,71.16
2018-01-26T16:41:06.028Z,71.95
2018-01-26T16:43:34.348Z,71.74
2018-01-26T16:46:02.672Z,71.50
2018-01-26T16:48:31.011Z,71.32
2018-01-26T16:50:59.470Z,71.81
2018-01-26T16:53:27.783Z,71.46
2018-01-26T16:55:57.041Z,71.55
2018-01-26T16:58:25.341Z,71.81
2018-01-26T17:00:53.673Z,71.48
2018-01-26T17:03:22.056Z,70.99
2018-01-26T17:05:50.399Z,70.65
2018-01-26T17:08:18.707Z,71.12
2018-01-26T17:10:47.798Z,70.93
2018-01-26T17:13:16.922Z,71.87
2018-01-26T17:15:45.224Z,71.29
2018-01-26T17:18:13.852Z,71.75
2018-01-26T17:20:42.979Z,71.57
2018-01-26T17:23:11.270Z,71.62
2018-01-26T17:25:39.586Z,70.82
2018-01-26T17:28:08.125Z,70.92
2018-01-26T17:30:36.464Z,70.50
2018-01-26T17:33:05.839Z,70.09
2018-01-26T17:35:34.168Z,70.12
2018-01-26T17:38:02.484Z,70.24
2018-01-26T17:40:30.990Z,70.23
2018-01-26T17:42:59.396Z,70.31
2018-01-26T17:45:28.494Z,69.95
2018-01-26T17:47:56.849Z,70.16
2018-01-26T17:50:25.187Z,69.95
2018-01-26T17:52:53.555Z,70.30
2018-01-26T17:55:21.918Z,70.49
2018-01-26T17:57:50.233Z,71.64
2018-01-26T18:00:18.564Z,71.80
2018-01-26T18:02:47.108Z,72.30
2018-01-26T18:05:15.444Z,72.25
2018-01-26T18:07:43.787Z,72.48
2018-01-26T18:10:12.462Z,71.72
2018-01-26T18:12:40.794Z,72.07
2018-01-26T18:15:09.085Z,73.06
2018-01-26T18:17:37.485Z,73.15
2018-01-26T18:20:05.818Z,72.58
2018-01-26T18:22:34.115Z,72.12
2018-01-26T18:25:02.598Z,71.63
2018-01-26T18:27:30.924Z,71.98
2018-01-26T18:30:00.043Z,71.66
2018-01-26T18:32:28.388Z,72.49
2018-01-26T18:34:56.690Z,72.14
2018-01-26T18:37:25.942Z,71.89
2018-01-26T18:39:54.303Z,71.86
2018-01-26T18:42:22.659Z,71.96
2018-01-26T18:44:51.024Z,71.52
2018-01-26T18:47:20.844Z,72.70
2018-01-26T18:49:49.929Z,72.46
2018-01-26T18:52:19.029Z,71.81
2018-01-26T18:54:48.133Z,71.77
2018-01-26T18:57:16.448Z,71.77
2018-01-26T18:59:44.782Z,71.35
2018-01-26T19:02:13.874Z,71.58
2018-01-26T19:04:42.976Z,72.67
2018-01-26T19:07:11.286Z,72.32
2018-01-26T19:09:39.704Z,72.36
2018-01-26T19:12:08.044Z,72.75
2018-01-26T19:14:36.357Z,72.62
2018-01-26T19:17:04.701Z,72.31
2018-01-26T19:19:33.032Z,72.72
2018-01-26T19:22:01.367Z,73.36
2018-01-26T19:24:30.206Z,74.01
2018-01-26T19:26:58.511Z,73.80
2018-01-26T19:29:26.864Z,73.75
2018-01-26T19:31:56.038Z,74.12
2018-01-26T19:34:24.440Z,74.79
2018-01-26T19:36:53.704Z,75.13
2018-01-26T19:39:22.088Z,75.00
2018-01-26T19:41:50.441Z,74.68
2018-01-26T19:44:19.668Z,74.74
2018-01-26T19:46:48.060Z,74.72
2018-01-26T19:49:16.430Z,74.50
2018-01-26T19:51:44.790Z,74.43
2018-01-26T19:54:13.360Z,74.32
2018-01-26T19:56:41.721Z,73.94
2018-01-26T19:59:10.066Z,74.06
2018-01-26T20:01:39.484Z,74.26
2018-01-26T20:04:07.833Z,74.97
2018-01-26T20:06:59.436Z,74.38
2018-01-26T20:09:27.780Z,74.71
2018-01-26T20:12:02.720Z,74.52
2018-01-26T20:14:31.084Z,74.35
2018-01-26T20:17:00.245Z,74.03
2018-01-26T20:19:28.622Z,73.91
2018-01-26T20:21:56.940Z,73.99
2018-01-26T20:24:26.068Z,73.63
2018-01-26T20:26:55.172Z,74.18
2018-01-26T20:29:23.502Z,74.20
2018-01-26T20:31:51.852Z,73.88
2018-01-26T20:34:20.301Z,73.86
2018-01-26T20:36:48.647Z,74.11
2018-01-26T20:39:16.966Z,73.65
2018-01-26T20:41:45.312Z,73.70
2018-01-26T20:44:14.425Z,74.18
2018-01-26T20:46:42.810Z,73.33
2018-01-26T20:49:11.166Z,73.32
2018-01-26T20:51:39.506Z,72.04
2018-01-26T20:54:07.869Z,72.05
2018-01-26T20:56:36.612Z,72.12
2018-01-26T20:59:04.922Z,72.20
2018-01-26T21:01:34.001Z,72.39
2018-01-26T21:04:02.424Z,72.50
2018-01-26T21:06:30.794Z,72.40
2018-01-26T21:08:59.176Z,72.53
2018-01-26T21:11:27.567Z,72.20
2018-01-26T21:13:55.944Z,72.61
2018-01-26T21:16:24.249Z,72.66
2018-01-26T21:18:53.473Z,72.39
2018-01-26T21:21:21.825Z,71.84
2018-01-26T21:23:50.180Z,72.02
2018-01-26T21:26:18.532Z,71.93
2018-01-26T21:28:46.899Z,71.66
2018-01-26T21:31:15.206Z,72.00
2018-01-26T21:33:43.980Z,72.49
2018-01-26T21:36:12.669Z,72.58
2018-01-26T21:38:41.076Z,72.12
2018-01-26T21:41:09.959Z,72.36
2018-01-26T21:43:38.313Z,71.89
2018-01-26T21:46:06.616Z,72.10
2018-01-26T21:48:34.982Z,72.04
2018-01-26T21:51:03.347Z,71.99
2018-01-26T21:53:31.679Z,71.80
2018-01-26T21:56:00.876Z,72.00
2018-01-26T21:58:29.990Z,72.47
2018-01-26T22:00:59.121Z,72.63
2018-01-26T22:03:27.546Z,72.49
2018-01-26T22:05:55.849Z,72.49
2018-01-26T22:08:24.184Z,72.86
2018-01-26T22:10:52.544Z,72.72
2018-01-26T22:13:20.912Z,72.44
2018-01-26T22:15:49.249Z,72.45
2018-01-26T22:18:17.601Z,72.56
2018-01-26T22:20:45.945Z,73.34
2018-01-26T22:23:14.260Z,73.66
2018-01-26T22:25:43.019Z,73.02
2018-01-26T22:28:11.377Z,72.18
2018-01-26T22:30:39.702Z,72.21
2018-01-26T22:33:08.067Z,71.60
2018-01-26T22:35:36.376Z,71.92
2018-01-26T22:38:05.478Z,71.96
2018-01-26T22:40:34.776Z,72.04
2018-01-26T22:43:03.118Z,71.27
2018-01-26T22:45:31.441Z,70.20
2018-01-26T22:47:59.853Z,69.79
2018-01-26T22:50:28.201Z,69.26
2018-01-26T22:52:56.551Z,69.29
2018-01-26T22:55:26.144Z,69.26
2018-01-26T22:57:54.467Z,68.95
2018-01-26T23:00:22.816Z,68.95
2018-01-26T23:02:51.205Z,70.12
2018-01-26T23:05:19.544Z,71.26
2018-01-26T23:07:47.855Z,71.09
2018-01-26T23:10:16.296Z,71.05
2018-01-26T23:12:44.614Z,70.92
2018-01-26T23:15:12.972Z,71.11
2018-01-26T23:17:41.312Z,70.74
2018-01-26T23:20:10.453Z,70.64
2018-01-26T23:22:38.807Z,70.93
2018-01-26T23:25:07.172Z,71.38
2018-01-26T23:27:35.517Z,72.76
2018-01-26T23:30:03.842Z,72.65
2018-01-26T23:32:32.787Z,72.07
2018-01-26T23:35:01.184Z,72.24
2018-01-26T23:37:30.260Z,72.01
2018-01-26T23:39:58.608Z,72.01
2018-01-26T23:42:26.910Z,71.91
2018-01-26T23:44:55.257Z,71.09
2018-01-26T23:47:23.609Z,70.62
2018-01-26T23:49:51.952Z,71.47
2018-01-26T23:52:20.288Z,71.36
2018-01-26T23:54:49.137Z,70.84
2018-01-26T23:57:17.457Z,71.56
2018-01-26T23:59:45.832Z,72.61
